Green Bluff, Washington
Current Conditions -  °F | °C
As of 2:53 AM on Sunday 21 Dec 2014 (Local Time) from KSFF Reporting Station
Overcast Overcast  
Wind Chill: 50°   Ceiling: 1500
Heat Index: 50°   Visibility: 10mi
Dew Point: 44°   Wind: 15mph
Humidity: 80%   Direction: 250°WSW
Pressure: 29.47"   Gusts: 30mph
Location:  47.8288°N, 117.215°W
Report Text: KSFF 211053Z AUTO 25013G26KT 10SM OVC015 10/07 A2947 RMK AO2 PK WND 25026/1049 RAB28E38 SLP982 P0000 T01000067
Loading
Personal Weather Stations






























Interactive Weather Map New forecast layout! Learn more

10-Day Weather Forecast

Advertisements
Track Severe Weather on mobile